Airfield :
LOGIN :

Register | Disclaimer

   EN    FR    IT 

 










Legend :    VFR   Marginal VFR   IFR   Intensive IFR   Very Intensive IFR
Visi :
Ceiling :
>= 8 km
>= 3000ft
5 to 8 km
1000 to 3000 ft
1500m to 5 km
500 to 1000 ft
800 to 1500m
200 to 500 ft
< 800m
< 200 ft
Symbols :   Thunderstorms  Fog  Heavy snow  Heavy precipitations  Wind > 20 kt
SIGMETs :     Misc.  Thunderstorms  Icing  Turbulence  Mountain Waves  Volcanic Ashes







- Airport Elevation : 1247 ft
- IATA code : PRG


LKPR - Praha Ruzyne

CURRENT METAR :
  • 152130Z 00000KT 9000 FEW015 OVC030 M02/M03 Q1021 R24/29//95 R30/520195 NOSIG

EXPIRED METARs :
  • 152100Z VRB01KT 9000 FEW015 OVC030 M02/M03 Q1022 R24/29//95 R30/520195 NOSIG
  • 152030Z 32002KT 9000 FEW016 OVC030 M02/M03 Q1022 R24/29//95 R30/520195 NOSIG
  • 152000Z 36002KT 9000 FEW020 OVC031 M02/M03 Q1022 R24/29//95 R30/520195 NOSIG
  • 151930Z 36004KT 9000 FEW016 OVC030 M02/M03 Q1022 R24/29//95 R30/520195 NOSIG
  • 151900Z 34004KT 9000 FEW016 OVC030 M02/M03 Q1023 R24/29//95 R30/520195 NOSIG

TAF TAF LKPR
Valid from the 15 at 18:00 until the 17 at 00:00 UTC


151700Z 1518/1700 33005KT 9999 SCT010 BKN033
PROB30
TEMPO 1518/1521 4000 -SN BR BKN007 OVC023
BECMG 1518/1520 VRB02KT
BECMG 1600/1602 13004KT
PROB30
TEMPO 1602/1607 3000 BR NSC
No reported NOTAMs for that airfield.



MET'MAP, your aeronautical weather chart ! - Copyright ORBIFLY December 2007 - Disclaimer

ORBIFLY MET'MAP TEAM :

Programming & Development : Alexandra Zaïnal
Concept & Development : Baudouin d'Aumeries
Co-Development & Prog : Marc-Olivier Méhu
Technical & hardware support : Manuel Goepfert

Contact : metmap@orbifly.com




SOURCES & CREDITS :

   NOAA